»·PEaware :: N137AD KLAX-KSAN

N137AD :: KLAX-KSAN

FLIGHT INFORMATION

Flight Status: Arrived
Operator: Privately registered:
United States
More flights under this callsign
Pilot: Mike Z. (25595)
Aircraft: CESSNA 172 SKYHAWK
(C172)
More flights by this aircraft type
Origin: KLAX Los Angeles Intl
United States
Destination: KSAN San Diego Intl-Lindbergh
United States
More flights between these airports :: More routes between these airports
Route: KLAX HERMO V25 MZB KSAN
File this flight plan on PilotEdge
Remarks: CAT-11
Altitude:
(Current/Filed)
9,500ft
Speed:
(Current/Filed)
110kts
Departed: 17-Aug-19 03:53 PM
Arrived: 17-Aug-19 04:58 PM
Distance/Time
Traveled:
95nm/1:05
Distance/Time
To Go:
Arrived

Flight Plot

Page will automatically refresh every two minutes.

Flight plan parsing failed; only flown route is shown


Map Options




Map Legend


Flown Route
Filed Route
Departure Airport
Arrival Airport
Navaid (VOR, NDB)
Fix

Horizontal Profiles

Position Reports

Time Latitude Longitude Heading Altitude Ground
Speed
17-Aug-19 15:29 33.932738 -118.399121 21 112ft 0kts
17-Aug-19 15:30 33.932738 -118.399121 21 112ft 0kts
17-Aug-19 15:31 33.932738 -118.399121 21 112ft 0kts
17-Aug-19 15:32 33.932738 -118.399121 21 112ft 0kts
17-Aug-19 15:33 33.932738 -118.399121 21 112ft 0kts
17-Aug-19 15:34 33.932738 -118.399121 21 112ft 0kts
17-Aug-19 15:35 33.932738 -118.399121 21 112ft 0kts
17-Aug-19 15:36 33.932738 -118.399121 21 112ft 0kts
17-Aug-19 15:37 33.932738 -118.399121 21 112ft 0kts
17-Aug-19 15:38 33.932738 -118.399121 21 112ft 0kts
17-Aug-19 15:40 33.932738 -118.399121 21 112ft 0kts
17-Aug-19 15:41 33.932738 -118.399121 21 112ft 0kts
17-Aug-19 15:42 33.932738 -118.399121 21 112ft 0kts
17-Aug-19 15:43 33.932738 -118.399121 21 112ft 0kts
17-Aug-19 15:44 33.932738 -118.399121 21 112ft 0kts
17-Aug-19 15:45 33.932738 -118.399121 21 112ft 0kts
17-Aug-19 15:46 33.934491 -118.398053 49 110ft 13kts
17-Aug-19 15:47 33.935337 -118.390447 83 102ft 31kts
17-Aug-19 15:48 33.936467 -118.382773 4 96ft 0kts
17-Aug-19 15:49 33.936468 -118.382773 4 96ft 0kts
17-Aug-19 15:50 33.936467 -118.382773 4 96ft 0kts
17-Aug-19 15:51 33.936490 -118.382772 3 96ft 0kts
17-Aug-19 15:52 33.937211 -118.384274 263 98ft 33kts
17-Aug-19 15:53 33.935482 -118.407402 265 696ft 74kts
17-Aug-19 15:54 33.935397 -118.431134 269 1541ft 66kts
17-Aug-19 15:55 33.936401 -118.456901 269 2177ft 83kts
17-Aug-19 15:56 33.937468 -118.480067 269 2965ft 70kts
17-Aug-19 15:57 33.938534 -118.503890 269 3634ft 70kts
17-Aug-19 15:57 33.939409 -118.524679 268 4142ft 74kts
17-Aug-19 15:59 33.922772 -118.533333 175 4832ft 78kts
17-Aug-19 16:00 33.899946 -118.528616 174 5348ft 86kts
17-Aug-19 16:00 33.880207 -118.524401 175 5859ft 81kts
17-Aug-19 16:02 33.859534 -118.513368 163 6487ft 74kts
17-Aug-19 16:03 33.837940 -118.501623 167 6833ft 93kts
17-Aug-19 16:03 33.817200 -118.493929 168 7246ft 93kts
17-Aug-19 16:05 33.788520 -118.484915 147 7818ft 93kts
17-Aug-19 16:06 33.774666 -118.463102 132 8354ft 79kts
17-Aug-19 16:06 33.762460 -118.443092 131 8577ft 95kts
17-Aug-19 16:07 33.747827 -118.419099 131 9087ft 80kts
17-Aug-19 16:09 33.731728 -118.392383 131 9448ft 89kts
17-Aug-19 16:09 33.718984 -118.371612 131 9707ft 95kts
17-Aug-19 16:10 33.703775 -118.346745 131 10099ft 89kts
17-Aug-19 16:11 33.689733 -118.323375 131 10463ft 85kts
17-Aug-19 16:12 33.675681 -118.299907 131 10767ft 87kts
17-Aug-19 16:13 33.661397 -118.276111 131 11057ft 89kts
17-Aug-19 16:14 33.645675 -118.251123 134 11270ft 97kts
17-Aug-19 16:15 33.628087 -118.226186 134 11507ft 100kts
17-Aug-19 16:16 33.608049 -118.198305 134 11502ft 116kts
17-Aug-19 16:17 33.586587 -118.168639 134 11533ft 119kts
17-Aug-19 16:18 33.564538 -118.138178 134 11535ft 121kts
17-Aug-19 16:19 33.541367 -118.109041 137 11536ft 121kts
17-Aug-19 16:20 33.522270 -118.075955 114 11535ft 124kts
17-Aug-19 16:21 33.510056 -118.037071 113 11536ft 124kts
17-Aug-19 16:22 33.497534 -117.997148 113 11237ft 129kts
17-Aug-19 16:23 33.480601 -117.957887 127 10745ft 133kts
17-Aug-19 16:24 33.457134 -117.923273 142 10242ft 133kts
17-Aug-19 16:25 33.429641 -117.896637 132 9730ft 128kts
17-Aug-19 16:26 33.406262 -117.865535 137 9228ft 124kts
17-Aug-19 16:27 33.382243 -117.836929 139 8964ft 112kts
17-Aug-19 16:28 33.364316 -117.816388 141 9548ft 87kts
17-Aug-19 16:29 33.343152 -117.792884 140 9535ft 112kts
17-Aug-19 16:30 33.319214 -117.766587 140 9538ft 120kts
17-Aug-19 16:31 33.294326 -117.739271 140 9529ft 122kts
17-Aug-19 16:32 33.269226 -117.712120 140 9530ft 118kts
17-Aug-19 16:33 33.243023 -117.691327 161 9531ft 112kts
17-Aug-19 16:34 33.214137 -117.677864 160 9531ft 111kts
17-Aug-19 16:35 33.187771 -117.653473 139 9186ft 131kts
17-Aug-19 16:36 33.161073 -117.624245 140 8887ft 129kts
17-Aug-19 16:37 33.134265 -117.595484 140 8587ft 129kts
17-Aug-19 16:38 33.107253 -117.566653 140 8224ft 132kts
17-Aug-19 16:39 33.079520 -117.537149 141 7699ft 135kts
17-Aug-19 16:40 33.051728 -117.507771 142 7101ft 133kts
17-Aug-19 16:41 33.023760 -117.478506 142 6503ft 133kts
17-Aug-19 16:42 32.995554 -117.449378 143 5907ft 136kts
17-Aug-19 16:43 32.970762 -117.414289 137 5309ft 139kts
17-Aug-19 16:44 32.940931 -117.385802 146 4714ft 137kts
17-Aug-19 16:45 32.911190 -117.358159 146 4133ft 133kts
17-Aug-19 16:46 32.883805 -117.332280 143 3710ft 129kts
17-Aug-19 16:47 32.857287 -117.304043 142 3307ft 127kts
17-Aug-19 16:48 32.831002 -117.276218 143 2957ft 124kts
17-Aug-19 16:49 32.809192 -117.253192 143 2697ft 120kts
17-Aug-19 16:50 32.784542 -117.227247 143 2395ft 117kts
17-Aug-19 16:51 32.760243 -117.198517 132 1774ft 133kts
17-Aug-19 16:52 32.745405 -117.159014 100 1244ft 123kts
17-Aug-19 16:53 32.733297 -117.128266 172 1207ft 86kts
17-Aug-19 16:54 32.722851 -117.145642 293 956ft 83kts
17-Aug-19 16:55 32.727956 -117.166325 287 400ft 60kts
17-Aug-19 16:56 32.732958 -117.187100 282 15ft 41kts
17-Aug-19 16:57 32.733900 -117.186374 105 17ft 18kts
17-Aug-19 16:58 32.734190 -117.185080 188 17ft 0kts
17-Aug-19 16:59 32.734190 -117.185080 188 17ft 0kts
17-Aug-19 17:00 32.734190 -117.185080 188 17ft 0kts
17-Aug-19 17:01 32.734190 -117.185080 188 17ft 0kts
17-Aug-19 17:09 32.736530 -117.184982 354 18ft 0kts
17-Aug-19 17:10 32.736530 -117.184982 354 18ft 0kts
17-Aug-19 17:11 32.736530 -117.184982 354 18ft 0kts

Navigation Log

Ident Type
Flight plan parsing failed, navigation log unavailable